createdAt,value
2018-03-06T00:00:46.525Z,20.07
2018-03-06T00:03:17.591Z,21.00
2018-03-06T00:05:49.104Z,22.07
2018-03-06T00:08:20.593Z,20.77
2018-03-06T00:10:52.164Z,21.30
2018-03-06T00:13:24.237Z,20.80
2018-03-06T00:15:59.498Z,19.23
2018-03-06T00:18:30.672Z,21.63
2018-03-06T00:21:03.075Z,22.17
2018-03-06T00:23:34.405Z,19.80
2018-03-06T00:26:07.557Z,22.93
2018-03-06T00:28:39.681Z,21.63
2018-03-06T00:31:11.112Z,21.30
2018-03-06T00:33:43.361Z,23.50
2018-03-06T00:36:14.592Z,22.23
2018-03-06T00:38:45.893Z,29.93
2018-03-06T00:41:17.832Z,24.07
2018-03-06T00:43:49.517Z,26.03
2018-03-06T00:46:20.872Z,26.83
2018-03-06T00:48:52.580Z,25.23
2018-03-06T00:51:24.787Z,25.17
2018-03-06T00:53:56.809Z,23.90
2018-03-06T00:56:28.856Z,23.67
2018-03-06T00:59:00.626Z,22.50
2018-03-06T01:01:32.564Z,21.97
2018-03-06T01:04:12.268Z,20.93
2018-03-06T01:06:44.249Z,20.47
2018-03-06T01:09:16.452Z,21.20
2018-03-06T01:11:47.640Z,22.63
2018-03-06T01:14:19.548Z,22.60
2018-03-06T01:16:50.716Z,20.97
2018-03-06T01:19:22.451Z,20.53
2018-03-06T01:21:53.691Z,20.20
2018-03-06T01:24:25.469Z,20.40
2018-03-06T01:26:57.050Z,20.90
2018-03-06T01:29:28.605Z,20.63
2018-03-06T01:32:00.170Z,21.00
2018-03-06T01:34:32.178Z,20.90
2018-03-06T01:37:05.724Z,21.83
2018-03-06T01:39:37.355Z,22.37
2018-03-06T01:42:08.661Z,24.17
2018-03-06T01:44:39.759Z,22.70
2018-03-06T01:47:11.596Z,21.40
2018-03-06T01:49:43.112Z,22.47
2018-03-06T01:52:14.912Z,23.10
2018-03-06T01:54:46.088Z,23.80
2018-03-06T01:59:58.793Z,31.80
2018-03-06T02:02:30.352Z,28.33
2018-03-06T02:05:02.896Z,23.60
2018-03-06T02:07:34.460Z,23.37
2018-03-06T02:12:37.868Z,21.30
2018-03-06T02:15:09.370Z,21.23
2018-03-06T02:17:41.348Z,23.27
2018-03-06T02:20:13.045Z,21.63
2018-03-06T02:22:44.642Z,20.60
2018-03-06T02:25:15.673Z,22.20
2018-03-06T02:27:47.254Z,21.30
2018-03-06T02:30:18.409Z,21.30
2018-03-06T02:32:50.162Z,22.37
2018-03-06T02:35:21.600Z,24.40
2018-03-06T02:37:57.067Z,24.27
2018-03-06T02:40:32.004Z,25.47
2018-03-06T02:43:04.295Z,23.43
2018-03-06T02:45:36.391Z,21.83
2018-03-06T02:48:08.192Z,24.77
2018-03-06T02:50:39.628Z,23.83
2018-03-06T02:53:11.328Z,24.17
2018-03-06T02:55:42.817Z,22.50
2018-03-06T02:58:14.482Z,25.63
2018-03-06T03:00:51.739Z,24.27
2018-03-06T03:03:23.018Z,23.90
2018-03-06T03:05:54.367Z,23.63
2018-03-06T03:08:25.789Z,24.53
2018-03-06T03:10:57.208Z,23.00
2018-03-06T03:13:29.039Z,25.70
2018-03-06T03:16:01.711Z,24.60
2018-03-06T03:18:33.329Z,24.10
2018-03-06T03:21:05.385Z,25.70
2018-03-06T03:23:36.904Z,24.47
2018-03-06T03:26:08.574Z,27.40
2018-03-06T03:28:41.020Z,26.63
2018-03-06T03:31:12.333Z,25.57
2018-03-06T03:33:43.840Z,24.80
2018-03-06T03:36:15.287Z,23.13
2018-03-06T03:38:46.852Z,24.77
2018-03-06T03:41:18.360Z,24.90
2018-03-06T03:44:01.277Z,23.77
2018-03-06T03:46:33.080Z,24.97
2018-03-06T03:49:05.970Z,25.17
2018-03-06T03:51:37.929Z,22.70
2018-03-06T03:54:09.260Z,22.23
2018-03-06T03:56:40.696Z,21.27
2018-03-06T03:59:11.748Z,22.17
2018-03-06T04:01:43.161Z,23.13
2018-03-06T04:04:18.785Z,20.80
2018-03-06T04:06:50.640Z,20.57
2018-03-06T04:09:23.034Z,19.20
2018-03-06T04:11:54.352Z,18.33
2018-03-06T04:14:26.723Z,18.83
2018-03-06T04:16:58.136Z,18.73
2018-03-06T04:19:30.196Z,19.07
2018-03-06T04:22:02.693Z,18.50
2018-03-06T04:24:33.924Z,18.50
2018-03-06T04:27:05.900Z,18.83
2018-03-06T04:29:37.424Z,18.90
2018-03-06T04:32:08.764Z,18.07
2018-03-06T04:34:40.223Z,19.63
2018-03-06T04:37:34.649Z,20.13
2018-03-06T04:40:07.185Z,20.90
2018-03-06T04:42:39.188Z,20.77
2018-03-06T04:45:12.510Z,20.70
2018-03-06T04:47:44.720Z,22.20
2018-03-06T04:50:16.020Z,22.27
2018-03-06T04:52:47.752Z,22.20
2018-03-06T04:55:21.428Z,22.10
2018-03-06T04:57:53.372Z,22.77
2018-03-06T05:00:25.005Z,22.70
2018-03-06T05:02:56.656Z,23.10
2018-03-06T05:05:28.375Z,22.93
2018-03-06T05:08:00.025Z,22.33
2018-03-06T05:10:40.034Z,24.90
2018-03-06T05:13:11.723Z,26.13
2018-03-06T05:15:44.156Z,25.30
2018-03-06T05:18:16.385Z,24.97
2018-03-06T05:21:02.960Z,25.43
2018-03-06T05:23:34.526Z,25.60
2018-03-06T05:26:08.125Z,26.43
2018-03-06T05:28:39.851Z,26.90
2018-03-06T05:31:11.508Z,26.77
2018-03-06T05:33:43.268Z,27.40
2018-03-06T05:36:14.526Z,26.43
2018-03-06T05:38:45.931Z,24.77
2018-03-06T05:41:18.091Z,26.70
2018-03-06T05:43:49.734Z,31.80
2018-03-06T05:46:21.179Z,26.57
2018-03-06T05:48:51.996Z,26.97
2018-03-06T05:51:23.844Z,26.70
2018-03-06T05:53:55.381Z,27.13
2018-03-06T05:56:26.173Z,26.53
2018-03-06T05:58:58.520Z,25.03
2018-03-06T06:01:29.422Z,27.53
2018-03-06T06:04:03.100Z,24.30
2018-03-06T06:06:34.699Z,26.33
2018-03-06T06:09:09.040Z,26.13
2018-03-06T06:11:39.876Z,26.77
2018-03-06T06:14:10.934Z,28.63
2018-03-06T06:16:42.188Z,27.67
2018-03-06T06:19:12.946Z,24.70
2018-03-06T06:21:44.977Z,27.10
2018-03-06T06:24:16.600Z,24.40
2018-03-06T06:26:47.453Z,27.10
2018-03-06T06:31:57.802Z,26.10
2018-03-06T06:34:28.664Z,28.47
2018-03-06T06:37:00.369Z,25.87
2018-03-06T06:39:31.271Z,27.00
2018-03-06T06:42:03.264Z,25.50
2018-03-06T06:44:35.109Z,28.60
2018-03-06T06:47:07.077Z,30.00
2018-03-06T06:49:38.312Z,30.27
2018-03-06T06:52:09.396Z,28.77
2018-03-06T06:54:40.195Z,27.63
2018-03-06T06:57:11.695Z,27.63
2018-03-06T06:59:43.325Z,26.70
2018-03-06T07:02:14.840Z,29.20
2018-03-06T07:04:46.005Z,28.30
2018-03-06T07:07:17.208Z,27.80
2018-03-06T07:09:48.641Z,25.90
2018-03-06T07:12:19.959Z,27.13
2018-03-06T07:14:51.585Z,25.30
2018-03-06T07:17:22.443Z,26.60
2018-03-06T07:19:53.332Z,26.67
2018-03-06T07:22:24.214Z,24.70
2018-03-06T07:24:55.495Z,25.27
2018-03-06T07:27:26.264Z,25.87
2018-03-06T07:29:57.857Z,26.57
2018-03-06T07:32:29.040Z,27.73
2018-03-06T07:35:00.486Z,29.80
2018-03-06T07:37:32.004Z,28.10
2018-03-06T07:40:04.604Z,28.83
2018-03-06T07:42:35.888Z,27.77
2018-03-06T07:45:07.773Z,30.10
2018-03-06T07:47:39.016Z,30.57
2018-03-06T07:50:10.888Z,29.63
2018-03-06T07:52:43.532Z,29.60
2018-03-06T07:55:14.872Z,29.97
2018-03-06T07:57:45.708Z,27.33
2018-03-06T08:00:17.428Z,29.40
2018-03-06T08:02:55.377Z,27.80
2018-03-06T08:05:26.744Z,28.00
2018-03-06T08:07:58.124Z,27.67
2018-03-06T08:10:30.084Z,26.90
2018-03-06T08:13:02.350Z,26.13
2018-03-06T08:15:33.752Z,25.97
2018-03-06T08:18:05.811Z,26.00
2018-03-06T08:20:36.618Z,26.43
2018-03-06T08:23:08.337Z,27.30
2018-03-06T08:25:39.086Z,28.33
2018-03-06T08:28:10.552Z,26.53
2018-03-06T08:30:41.359Z,29.30
2018-03-06T08:33:12.974Z,27.50
2018-03-06T08:35:44.204Z,28.20
2018-03-06T08:38:15.024Z,28.77
2018-03-06T08:40:46.632Z,28.60
2018-03-06T08:43:18.356Z,27.30
2018-03-06T08:45:49.973Z,29.73
2018-03-06T08:48:21.115Z,29.03
2018-03-06T08:50:51.834Z,27.27
2018-03-06T08:53:23.000Z,29.87
2018-03-06T08:55:54.494Z,27.83
2018-03-06T08:58:25.710Z,28.60
2018-03-06T09:00:57.487Z,28.73
2018-03-06T09:03:37.450Z,27.40
2018-03-06T09:06:08.615Z,27.97
2018-03-06T09:08:39.468Z,29.40
2018-03-06T09:11:10.899Z,28.40
2018-03-06T09:13:42.561Z,26.30
2018-03-06T09:16:13.358Z,26.87
2018-03-06T09:18:44.141Z,28.33
2018-03-06T09:21:15.272Z,27.53
2018-03-06T09:23:46.101Z,29.80
2018-03-06T09:26:16.847Z,30.00
2018-03-06T09:28:47.718Z,31.50
2018-03-06T09:31:19.428Z,31.20
2018-03-06T09:33:50.302Z,31.27
2018-03-06T09:36:21.126Z,28.67
2018-03-06T09:38:52.888Z,30.20
2018-03-06T09:41:23.956Z,30.53
2018-03-06T09:43:54.752Z,29.67
2018-03-06T09:46:25.884Z,30.70
2018-03-06T09:48:56.773Z,31.63
2018-03-06T09:51:28.300Z,30.33
2018-03-06T09:54:00.254Z,31.60
2018-03-06T09:56:31.572Z,31.00
2018-03-06T09:59:04.488Z,31.90
2018-03-06T10:01:35.389Z,33.70
2018-03-06T10:04:07.432Z,31.73
2018-03-06T10:06:39.207Z,31.20
2018-03-06T10:09:09.959Z,32.80
2018-03-06T10:11:41.176Z,33.50
2018-03-06T10:14:12.765Z,34.27
2018-03-06T10:16:43.572Z,35.10
2018-03-06T10:19:15.052Z,34.70
2018-03-06T10:21:47.085Z,34.17
2018-03-06T10:24:17.988Z,33.53
2018-03-06T10:26:49.754Z,32.23
2018-03-06T10:29:21.315Z,34.43
2018-03-06T10:31:52.785Z,32.70
2018-03-06T10:34:24.436Z,30.93
2018-03-06T10:36:55.260Z,36.27
2018-03-06T10:39:26.879Z,36.20
2018-03-06T10:41:58.115Z,35.00
2018-03-06T10:44:29.410Z,35.30
2018-03-06T10:47:00.467Z,36.60
2018-03-06T10:49:31.913Z,36.23
2018-03-06T10:52:04.516Z,35.57
2018-03-06T10:54:36.112Z,35.33
2018-03-06T10:57:07.300Z,35.53
2018-03-06T10:59:38.348Z,38.23
2018-03-06T11:02:13.647Z,35.27
2018-03-06T11:04:45.097Z,37.17
2018-03-06T11:07:16.189Z,35.77
2018-03-06T11:09:48.366Z,35.67
2018-03-06T11:12:19.484Z,34.63
2018-03-06T11:14:50.342Z,34.87
2018-03-06T11:17:21.132Z,34.07
2018-03-06T11:19:52.216Z,35.53
2018-03-06T11:22:23.662Z,35.13
2018-03-06T11:24:54.458Z,36.87
2018-03-06T11:27:25.480Z,38.50
2018-03-06T11:29:56.205Z,36.00
2018-03-06T11:32:26.988Z,37.27
2018-03-06T11:34:58.107Z,39.83
2018-03-06T11:37:28.993Z,39.03
2018-03-06T11:39:59.753Z,39.50
2018-03-06T11:42:31.636Z,39.60
2018-03-06T11:45:05.729Z,36.90
2018-03-06T11:47:37.023Z,37.97
2018-03-06T11:50:10.592Z,42.17
2018-03-06T11:52:41.650Z,40.97
2018-03-06T11:55:12.537Z,40.60
2018-03-06T11:57:43.373Z,40.27
2018-03-06T12:00:14.475Z,41.53
2018-03-06T12:02:45.336Z,40.10
2018-03-06T12:05:16.077Z,40.07
2018-03-06T12:07:47.127Z,40.00
2018-03-06T12:10:18.009Z,40.40
2018-03-06T12:12:48.873Z,39.43
2018-03-06T12:15:22.851Z,40.80
2018-03-06T12:17:53.635Z,40.23
2018-03-06T12:20:24.758Z,40.13
2018-03-06T12:22:56.144Z,39.93
2018-03-06T12:25:26.921Z,40.07
2018-03-06T12:27:58.092Z,40.20
2018-03-06T12:30:28.833Z,39.33
2018-03-06T12:33:00.838Z,41.83
2018-03-06T12:35:32.060Z,41.83
2018-03-06T12:38:09.137Z,41.67
2018-03-06T12:40:40.201Z,41.70
2018-03-06T12:43:10.992Z,42.40
2018-03-06T12:45:29.813Z,41.43
2018-03-06T12:45:46.464Z,41.57
2018-03-06T12:47:58.843Z,40.63
2018-03-06T12:48:17.614Z,40.47
2018-03-06T12:50:31.402Z,38.60
2018-03-06T12:50:48.392Z,42.30
2018-03-06T12:53:00.433Z,40.20
2018-03-06T12:53:19.890Z,42.20
2018-03-06T12:55:30.239Z,37.47
2018-03-06T12:55:51.920Z,41.47
2018-03-06T12:58:00.104Z,36.57
2018-03-06T12:58:25.645Z,41.10
2018-03-06T13:00:29.162Z,38.77
2018-03-06T13:00:56.604Z,42.47
2018-03-06T13:02:58.959Z,37.33
2018-03-06T13:03:27.817Z,42.67
2018-03-06T13:05:28.885Z,39.70
2018-03-06T13:06:03.544Z,42.27
2018-03-06T13:08:00.652Z,38.27
2018-03-06T13:08:34.776Z,40.77
2018-03-06T13:10:29.761Z,40.50
2018-03-06T13:11:06.924Z,42.40
2018-03-06T13:12:58.792Z,38.77
2018-03-06T13:13:37.844Z,44.60
2018-03-06T13:15:27.834Z,37.80
2018-03-06T13:16:09.954Z,41.80
2018-03-06T13:17:57.679Z,37.67
2018-03-06T13:18:40.812Z,40.10
2018-03-06T13:20:26.707Z,38.20
2018-03-06T13:21:11.804Z,40.80
2018-03-06T13:22:56.994Z,39.00
2018-03-06T13:23:42.603Z,39.40
2018-03-06T13:25:26.857Z,36.40
2018-03-06T13:26:14.523Z,40.83
2018-03-06T13:28:02.230Z,39.07
2018-03-06T13:28:45.620Z,38.60
2018-03-06T13:30:32.027Z,36.70
2018-03-06T13:31:16.573Z,41.07
2018-03-06T13:33:01.842Z,37.50
2018-03-06T13:33:47.548Z,38.90
2018-03-06T13:35:30.879Z,37.43
2018-03-06T13:36:20.452Z,35.70
2018-03-06T13:37:59.940Z,35.37
2018-03-06T13:38:51.263Z,39.20
2018-03-06T13:40:28.970Z,35.80
2018-03-06T13:41:22.844Z,39.23
2018-03-06T13:42:58.049Z,31.67
2018-03-06T13:43:53.853Z,40.90
2018-03-06T13:45:27.088Z,31.90
2018-03-06T13:47:26.852Z,37.30
2018-03-06T13:47:56.163Z,32.53
2018-03-06T13:49:58.020Z,37.13
2018-03-06T13:50:25.251Z,31.90
2018-03-06T13:52:28.907Z,38.50
2018-03-06T13:52:54.279Z,34.93
2018-03-06T13:55:01.203Z,34.93
2018-03-06T13:55:23.322Z,34.50
2018-03-06T13:57:32.754Z,37.40
2018-03-06T13:57:52.381Z,34.80
2018-03-06T14:00:06.330Z,37.67
2018-03-06T14:00:22.169Z,33.63
2018-03-06T14:02:37.632Z,34.80
2018-03-06T14:02:53.134Z,33.90
2018-03-06T14:05:08.564Z,37.97
2018-03-06T14:05:22.164Z,32.27
2018-03-06T14:07:39.342Z,36.00
2018-03-06T14:07:51.190Z,33.63
2018-03-06T14:10:10.553Z,35.67
2018-03-06T14:10:20.350Z,32.17
2018-03-06T14:12:41.427Z,35.23
2018-03-06T14:12:49.385Z,34.90
2018-03-06T14:15:12.321Z,35.97
2018-03-06T14:15:18.425Z,32.13
2018-03-06T14:17:43.705Z,36.00
2018-03-06T14:17:47.501Z,32.83
2018-03-06T14:20:14.668Z,36.43
2018-03-06T14:20:17.297Z,32.43
2018-03-06T14:22:45.568Z,36.60
2018-03-06T14:22:46.367Z,36.27
2018-03-06T14:25:15.402Z,33.30
2018-03-06T14:25:16.477Z,36.00
2018-03-06T14:27:45.196Z,33.80
2018-03-06T14:27:48.838Z,37.60
2018-03-06T14:30:14.250Z,34.57
2018-03-06T14:30:19.649Z,34.10
2018-03-06T14:32:43.294Z,34.63
2018-03-06T14:32:50.592Z,34.97
2018-03-06T14:35:12.358Z,35.33
2018-03-06T14:35:22.315Z,37.53
2018-03-06T14:37:41.411Z,37.40
2018-03-06T14:37:53.152Z,34.73
2018-03-06T14:40:10.499Z,37.90
2018-03-06T14:40:23.932Z,37.40
2018-03-06T14:42:40.293Z,39.00
2018-03-06T14:42:54.954Z,35.20
2018-03-06T14:45:10.447Z,39.50
2018-03-06T14:45:25.896Z,34.73
2018-03-06T14:47:39.502Z,39.90
2018-03-06T14:47:56.659Z,34.43
2018-03-06T14:50:09.409Z,38.23
2018-03-06T14:50:27.809Z,33.70
2018-03-06T14:52:38.473Z,40.00
2018-03-06T14:52:58.856Z,35.00
2018-03-06T14:55:07.528Z,36.93
2018-03-06T14:55:31.372Z,36.40
2018-03-06T14:57:36.566Z,38.67
2018-03-06T14:58:04.717Z,34.07
2018-03-06T15:00:05.657Z,38.67
2018-03-06T15:00:35.717Z,39.00
2018-03-06T15:02:34.843Z,38.77
2018-03-06T15:03:08.000Z,34.60
2018-03-06T15:05:03.899Z,39.73
2018-03-06T15:05:40.908Z,37.57
2018-03-06T15:07:32.965Z,38.23
2018-03-06T15:08:12.118Z,35.27
2018-03-06T15:10:02.052Z,37.43
2018-03-06T15:10:43.004Z,34.37
2018-03-06T15:12:31.078Z,38.00
2018-03-06T15:13:14.012Z,38.50
2018-03-06T15:15:00.912Z,38.43
2018-03-06T15:15:45.458Z,34.87
2018-03-06T15:17:29.933Z,36.90
2018-03-06T15:18:16.972Z,38.40
2018-03-06T15:19:59.000Z,38.93
2018-03-06T15:20:48.528Z,35.33
2018-03-06T15:22:28.042Z,39.13
2018-03-06T15:23:20.342Z,35.70
2018-03-06T15:24:57.111Z,42.30
2018-03-06T15:25:51.236Z,36.17
2018-03-06T15:27:26.142Z,41.13
2018-03-06T15:28:23.247Z,33.47
2018-03-06T15:29:55.211Z,42.30
2018-03-06T15:30:55.337Z,36.73
2018-03-06T15:32:24.282Z,40.53
2018-03-06T15:33:26.867Z,37.37
2018-03-06T15:34:53.310Z,43.60
2018-03-06T15:35:57.836Z,36.50
2018-03-06T15:37:22.373Z,43.57
2018-03-06T15:38:28.921Z,34.93
2018-03-06T15:39:51.395Z,40.90
2018-03-06T15:41:00.184Z,37.20
2018-03-06T15:42:20.503Z,43.20
2018-03-06T15:43:31.212Z,34.60
2018-03-06T15:44:49.534Z,40.20
2018-03-06T15:46:02.179Z,36.70
2018-03-06T15:47:18.566Z,42.30
2018-03-06T15:48:33.649Z,38.23
2018-03-06T15:49:47.645Z,43.00
2018-03-06T15:51:06.049Z,37.70
2018-03-06T15:52:16.686Z,42.20
2018-03-06T15:53:37.673Z,39.13
2018-03-06T15:54:45.732Z,40.60
2018-03-06T15:56:08.416Z,39.53
2018-03-06T15:57:18.626Z,44.43
2018-03-06T15:58:39.410Z,37.97
2018-03-06T15:59:47.654Z,41.87
2018-03-06T16:01:10.903Z,38.47
2018-03-06T16:02:16.730Z,39.00
2018-03-06T16:03:41.861Z,36.87
2018-03-06T16:04:45.757Z,39.70
2018-03-06T16:06:12.826Z,33.27
2018-03-06T16:07:15.598Z,43.17
2018-03-06T16:08:43.812Z,37.37
2018-03-06T16:09:44.648Z,40.37
2018-03-06T16:11:15.301Z,33.80
2018-03-06T16:12:13.710Z,38.00
2018-03-06T16:13:46.157Z,36.77
2018-03-06T16:14:42.831Z,38.00
2018-03-06T16:16:17.006Z,34.67
2018-03-06T16:17:11.994Z,41.10
2018-03-06T16:18:48.244Z,34.67
2018-03-06T16:19:41.770Z,42.17
2018-03-06T16:21:19.252Z,36.63
2018-03-06T16:22:10.854Z,43.50
2018-03-06T16:23:50.136Z,37.40
2018-03-06T16:24:39.884Z,38.43
2018-03-06T16:26:21.596Z,39.20
2018-03-06T16:27:09.686Z,39.87
2018-03-06T16:28:53.060Z,36.70
2018-03-06T16:29:38.745Z,38.27
2018-03-06T16:31:24.056Z,39.40
2018-03-06T16:32:09.901Z,37.03
2018-03-06T16:33:55.232Z,35.13
2018-03-06T16:34:38.991Z,35.53
2018-03-06T16:36:26.218Z,36.43
2018-03-06T16:37:08.014Z,34.53
2018-03-06T16:38:58.290Z,34.73
2018-03-06T16:39:37.066Z,33.33
2018-03-06T16:41:32.332Z,36.30
2018-03-06T16:42:06.138Z,32.63
2018-03-06T16:44:05.077Z,33.43
2018-03-06T16:44:35.188Z,31.57
2018-03-06T16:46:36.370Z,34.73
2018-03-06T16:47:04.214Z,29.73
2018-03-06T16:49:07.136Z,36.80
2018-03-06T16:49:34.074Z,30.70
2018-03-06T16:51:37.989Z,34.90
2018-03-06T16:52:03.105Z,29.33
2018-03-06T16:54:09.262Z,32.87
2018-03-06T16:54:32.135Z,30.10
2018-03-06T16:56:39.291Z,35.37
2018-03-06T16:57:01.206Z,27.10
2018-03-06T16:59:13.887Z,32.47
2018-03-06T16:59:31.026Z,28.57
2018-03-06T17:01:45.320Z,34.47
2018-03-06T17:02:00.861Z,28.90
2018-03-06T17:04:17.045Z,34.13
2018-03-06T17:04:29.886Z,29.47
2018-03-06T17:06:48.136Z,37.50
2018-03-06T17:06:59.910Z,30.10
2018-03-06T17:09:19.421Z,35.40
2018-03-06T17:09:28.945Z,32.17
2018-03-06T17:11:50.529Z,34.93
2018-03-06T17:11:59.502Z,31.70
2018-03-06T17:14:22.845Z,33.97
2018-03-06T17:14:28.781Z,29.20
2018-03-06T17:16:55.096Z,33.40
2018-03-06T17:16:59.071Z,28.85
2018-03-06T17:19:26.942Z,38.93
2018-03-06T17:19:28.656Z,26.80
2018-03-06T17:21:58.016Z,34.40
2018-03-06T17:21:59.648Z,28.73
2018-03-06T17:24:28.779Z,31.30
2018-03-06T17:24:29.237Z,32.90
2018-03-06T17:26:57.856Z,29.63
2018-03-06T17:27:00.772Z,34.90
2018-03-06T17:29:33.536Z,36.60
2018-03-06T17:29:34.768Z,27.45
2018-03-06T17:32:04.207Z,27.85
2018-03-06T17:32:05.223Z,32.27
2018-03-06T17:34:33.370Z,29.63
2018-03-06T17:34:36.173Z,34.30
2018-03-06T17:37:02.404Z,28.60
2018-03-06T17:37:07.029Z,35.07
2018-03-06T17:39:38.299Z,35.30
2018-03-06T17:39:48.099Z,29.10
2018-03-06T17:42:09.148Z,35.10
2018-03-06T17:42:17.224Z,28.95
2018-03-06T17:44:40.129Z,33.13
2018-03-06T17:44:46.242Z,29.00
2018-03-06T17:47:11.364Z,32.50
2018-03-06T17:47:16.323Z,27.13
2018-03-06T17:49:42.925Z,33.47
2018-03-06T17:49:45.381Z,29.83
2018-03-06T17:52:13.833Z,34.87
2018-03-06T17:52:14.463Z,29.27
2018-03-06T17:54:47.026Z,28.60
2018-03-06T17:54:55.204Z,32.40
2018-03-06T17:57:16.043Z,28.80
2018-03-06T17:57:26.074Z,34.30
2018-03-06T17:59:45.103Z,29.50
2018-03-06T17:59:57.262Z,33.97
2018-03-06T18:02:14.131Z,29.52
2018-03-06T18:02:28.185Z,34.20
2018-03-06T18:04:44.121Z,29.08
2018-03-06T18:04:59.945Z,31.70
2018-03-06T18:07:13.144Z,29.27
2018-03-06T18:07:31.145Z,33.43
2018-03-06T18:09:42.201Z,28.20
2018-03-06T18:10:02.019Z,33.80
2018-03-06T18:12:11.265Z,28.67
2018-03-06T18:12:32.900Z,33.20
2018-03-06T18:14:41.042Z,27.77
2018-03-06T18:15:04.074Z,32.57
2018-03-06T18:17:10.110Z,29.27
2018-03-06T18:17:34.962Z,36.00
2018-03-06T18:19:39.129Z,30.33
2018-03-06T18:20:09.529Z,32.63
2018-03-06T18:22:08.208Z,32.70
2018-03-06T18:22:40.321Z,34.37
2018-03-06T18:24:49.884Z,36.72
2018-03-06T18:25:11.310Z,31.57
2018-03-06T18:27:22.562Z,32.35
2018-03-06T18:27:44.120Z,34.27
2018-03-06T18:29:51.582Z,28.98
2018-03-06T18:30:15.025Z,34.90
2018-03-06T18:32:21.592Z,29.98
2018-03-06T18:32:47.048Z,32.67
2018-03-06T18:34:50.622Z,28.62
2018-03-06T18:35:18.152Z,33.37
2018-03-06T18:37:19.673Z,29.37
2018-03-06T18:37:49.044Z,31.10
2018-03-06T18:39:48.693Z,27.87
2018-03-06T18:40:20.111Z,35.13
2018-03-06T18:42:17.770Z,27.58
2018-03-06T18:42:51.277Z,33.30
2018-03-06T18:44:51.219Z,28.65
2018-03-06T18:45:22.324Z,30.97
2018-03-06T18:47:21.070Z,27.40
2018-03-06T18:47:53.325Z,31.57
2018-03-06T18:50:01.800Z,28.60
2018-03-06T18:50:33.095Z,32.90
2018-03-06T18:52:31.648Z,30.40
2018-03-06T18:53:05.069Z,33.40
2018-03-06T18:55:00.670Z,30.05
2018-03-06T18:55:36.401Z,32.57
2018-03-06T18:57:29.713Z,28.87
2018-03-06T18:58:07.846Z,33.20
2018-03-06T19:00:47.953Z,31.63
2018-03-06T19:03:52.212Z,27.05
2018-03-06T19:05:30.812Z,33.20
2018-03-06T19:06:51.384Z,28.77
2018-03-06T19:08:03.224Z,31.60
2018-03-06T19:09:31.011Z,31.37
2018-03-06T19:10:34.575Z,32.90
2018-03-06T19:12:00.135Z,33.20
2018-03-06T19:13:07.230Z,32.83
2018-03-06T19:14:35.609Z,33.97
2018-03-06T19:15:38.288Z,33.47
2018-03-06T19:17:04.794Z,36.67
2018-03-06T19:18:10.316Z,32.60
2018-03-06T19:19:33.810Z,34.35
2018-03-06T19:20:41.117Z,32.60
2018-03-06T19:22:08.457Z,28.62
2018-03-06T19:23:12.057Z,32.20
2018-03-06T19:24:38.609Z,25.67
2018-03-06T19:25:45.141Z,33.47
2018-03-06T19:27:07.663Z,27.60
2018-03-06T19:28:16.177Z,32.60
2018-03-06T19:29:36.717Z,26.55
2018-03-06T19:30:47.398Z,34.07
2018-03-06T19:32:05.819Z,26.27
2018-03-06T19:33:18.411Z,32.20
2018-03-06T19:34:34.938Z,27.62
2018-03-06T19:35:49.369Z,34.37
2018-03-06T19:37:04.011Z,25.25
2018-03-06T19:38:20.457Z,35.53
2018-03-06T19:39:33.034Z,27.02
2018-03-06T19:40:51.862Z,32.67
2018-03-06T19:42:02.130Z,26.35
2018-03-06T19:43:22.956Z,33.70
2018-03-06T19:44:31.142Z,26.50
2018-03-06T19:45:54.101Z,34.10
2018-03-06T19:47:00.922Z,24.83
2018-03-06T19:48:24.917Z,34.10
2018-03-06T19:49:30.022Z,26.05
2018-03-06T19:50:55.860Z,35.73
2018-03-06T19:51:59.109Z,25.17
2018-03-06T19:53:27.045Z,33.10
2018-03-06T19:54:43.591Z,25.10
2018-03-06T19:55:58.061Z,34.20
2018-03-06T19:58:29.319Z,35.13
2018-03-06T20:00:10.132Z,25.40
2018-03-06T20:01:00.423Z,36.23
2018-03-06T20:02:39.219Z,25.85
2018-03-06T20:03:31.329Z,34.07
2018-03-06T20:05:08.274Z,25.50
2018-03-06T20:06:02.649Z,34.97
2018-03-06T20:07:37.525Z,26.80
2018-03-06T20:08:33.500Z,36.27
2018-03-06T20:10:07.408Z,29.90
2018-03-06T20:11:04.295Z,35.00
2018-03-06T20:12:36.445Z,28.98
2018-03-06T20:13:35.465Z,33.57
2018-03-06T20:15:11.039Z,26.02
2018-03-06T20:16:06.757Z,35.20
2018-03-06T20:17:40.811Z,26.25
2018-03-06T20:18:37.555Z,33.40
2018-03-06T20:20:10.063Z,29.37
2018-03-06T20:21:08.702Z,35.80
2018-03-06T20:22:39.103Z,27.15
2018-03-06T20:23:39.574Z,35.50
2018-03-06T20:25:14.727Z,29.33
2018-03-06T20:26:10.549Z,35.93
2018-03-06T20:27:43.735Z,26.95
2018-03-06T20:28:41.789Z,36.93
2018-03-06T20:31:16.420Z,37.50
2018-03-06T20:33:27.299Z,23.62
2018-03-06T20:33:47.166Z,37.20
2018-03-06T20:35:56.833Z,26.05
2018-03-06T20:36:23.683Z,36.03
2018-03-06T20:41:06.701Z,34.93
2018-03-06T20:41:36.042Z,25.15
2018-03-06T20:43:37.876Z,33.37
2018-03-06T20:44:05.185Z,21.70
2018-03-06T20:46:12.540Z,36.07
2018-03-06T20:48:43.576Z,35.10
2018-03-06T20:49:43.091Z,25.42
2018-03-06T20:51:14.397Z,34.70
2018-03-06T20:52:14.474Z,29.42
2018-03-06T20:54:49.342Z,26.70
2018-03-06T20:56:12.938Z,34.13
2018-03-06T20:57:24.208Z,25.55
2018-03-06T20:58:43.804Z,34.83
2018-03-06T20:59:53.282Z,28.00
2018-03-06T21:01:14.881Z,36.00
2018-03-06T21:02:22.339Z,26.65
2018-03-06T21:03:45.730Z,37.03
2018-03-06T21:04:51.533Z,26.95
2018-03-06T21:06:16.679Z,35.30
2018-03-06T21:07:21.435Z,27.15
2018-03-06T21:08:48.298Z,35.70
2018-03-06T21:09:50.613Z,24.95
2018-03-06T21:11:19.112Z,36.70
2018-03-06T21:12:19.809Z,25.20
2018-03-06T21:13:49.876Z,35.17
2018-03-06T21:14:50.150Z,28.15
2018-03-06T21:16:21.920Z,34.23
2018-03-06T21:17:19.615Z,28.35
2018-03-06T21:18:53.921Z,35.13
2018-03-06T21:19:49.471Z,28.83
2018-03-06T21:21:24.820Z,35.67
2018-03-06T21:22:19.476Z,28.92
2018-03-06T21:23:56.440Z,37.50
2018-03-06T21:24:53.781Z,29.83
2018-03-06T21:26:27.605Z,36.00
2018-03-06T21:27:22.853Z,31.35
2018-03-06T21:28:59.157Z,37.20
2018-03-06T21:29:52.734Z,33.90
2018-03-06T21:31:30.042Z,38.57
2018-03-06T21:32:21.771Z,31.50
2018-03-06T21:34:01.384Z,36.60
2018-03-06T21:34:50.835Z,29.48
2018-03-06T21:36:32.479Z,37.20
2018-03-06T21:37:19.858Z,32.13
2018-03-06T21:39:03.417Z,37.87
2018-03-06T21:39:52.844Z,31.02
2018-03-06T21:41:34.730Z,36.37
2018-03-06T21:42:22.516Z,30.73
2018-03-06T21:44:05.958Z,36.70
2018-03-06T21:44:51.908Z,29.75
2018-03-06T21:46:36.809Z,38.20
2018-03-06T21:47:24.174Z,29.52
2018-03-06T21:49:07.621Z,38.70
2018-03-06T21:49:54.123Z,30.40
2018-03-06T21:51:38.794Z,37.67
2018-03-06T21:52:23.418Z,29.12
2018-03-06T21:54:09.610Z,36.83
2018-03-06T21:54:54.139Z,33.42
2018-03-06T21:56:40.756Z,35.87
2018-03-06T21:57:23.321Z,30.30
2018-03-06T21:59:11.513Z,35.90
2018-03-06T21:59:53.161Z,32.17
2018-03-06T22:01:42.317Z,36.07
2018-03-06T22:02:22.371Z,32.28
2018-03-06T22:04:18.068Z,33.90
2018-03-06T22:04:52.686Z,30.83
2018-03-06T22:06:50.225Z,36.13
2018-03-06T22:07:22.386Z,30.37
2018-03-06T22:09:21.926Z,36.30
2018-03-06T22:09:51.725Z,30.67
2018-03-06T22:11:52.724Z,35.83
2018-03-06T22:12:21.433Z,31.00
2018-03-06T22:14:25.651Z,36.80
2018-03-06T22:14:50.973Z,28.85
2018-03-06T22:16:56.841Z,36.70
2018-03-06T22:17:21.694Z,28.85
2018-03-06T22:19:29.447Z,37.93
2018-03-06T22:19:54.424Z,30.17
2018-03-06T22:22:00.372Z,35.30
2018-03-06T22:22:23.603Z,30.70
2018-03-06T22:24:31.542Z,34.00
2018-03-06T22:24:53.479Z,29.42
2018-03-06T22:27:03.045Z,37.93
2018-03-06T22:27:22.648Z,29.35
2018-03-06T22:29:34.182Z,33.70
2018-03-06T22:29:52.535Z,31.70
2018-03-06T22:32:04.976Z,36.77
2018-03-06T22:32:21.738Z,30.42
2018-03-06T22:34:38.891Z,36.13
2018-03-06T22:34:50.749Z,34.65
2018-03-06T22:37:10.029Z,35.93
2018-03-06T22:37:19.861Z,35.50
2018-03-06T22:39:41.444Z,37.57
2018-03-06T22:42:12.252Z,35.27
2018-03-06T22:42:23.140Z,35.78
2018-03-06T22:44:44.045Z,39.47
2018-03-06T22:44:52.934Z,35.05
2018-03-06T22:47:15.328Z,37.53
2018-03-06T22:47:21.999Z,36.95
2018-03-06T22:49:49.373Z,37.17
2018-03-06T22:49:51.070Z,35.80
2018-03-06T22:52:20.133Z,36.70
2018-03-06T22:52:20.197Z,38.20